Aeroporto :
LOGIN :

Iscrizione | Disclaimer

   EN    FR    IT 

 










Sommario :    VFR   VFR Marginale   IFR   IFR Intensivo   IFR Molto Intensivo
Visibilità : 
Base nubi : 
>= 8 km
>= 3000ft
5 / 8 km
1000 / 3000 ft
1500m / 5 km
500 / 1000 ft
800 / 1500m
200 / 500 ft
< 800m
< 200 ft
Simboli :   Temporali  Nebbia  Neve Forte  Precipitazioni Forti  Vento > 20 kt
SIGMETs :   Varie  Temporali  Ghiacco  Turbolenza  Onda orograficha  Ceneri Vulcaniche






- Altitudine del aeroporto : 1213 ft
- Codice IATA : SCQ


LEST - Santiago de Compostela

ULTIMO METAR :
  • 062130Z 00000KT 4000 1500S BR BCFG FEW003 07/07 Q1024 TEMPO 0800 FG BKN010

METARs OBSOLETI :
  • 062100Z 00000KT 4000 1500N BR BCFG FEW010 08/08 Q1024 TEMPO 0800 FG BKN010
  • 062030Z 32002KT 5000 1500N BCFG FEW010 SCT017 07/07 Q1024 TEMPO 0800 FG BKN010
  • 062000Z 00000KT 5000 1500N R17/0700D R35/P2000 BCFG FEW010 07/07 Q1024 TEMPO 0800 FG BKN010
  • 061940Z 00000KT 2500 0800N R17/1000D R35/P2000 BCFG FEW010 07/07 Q1024 TEMPO 0800 FG BKN010
  • 061930Z 00000KT 5000 2000N BCFG FEW010 08/08 Q1024 TEMPO 3000 BR
  • 061900Z 00000KT 5000 2000N BCFG FEW010 07/07 Q1023 TEMPO 3000 BR

TAF TAF LEST
Valido dal 06 a 18 ore il 07 a 18 ore UTC


061700Z 0618/0718 VRB05KT 9999 SCT015 TX12/0715Z TN06/0706Z
TEMPO 0618/0711 3000 BR
TEMPO 0618/0710 1500 BCFG BR BKN005
PROB40
TEMPO 0620/0709 0350 FG VV001
TEMPO 0706/0717 3000 -RADZ BKN005 BKN010



MetMap, La meteo Aeronautica in un colpo d'occhio ! - Copyright ORBIFLY Dicembre 2007 - Disclaimer

ORBIFLY MET'MAP TEAM :

Programmazione e sviluppo : Alexandra Zaïnal
Concezione : Baudouin d'Aumeries
Aiuto per la programmazione : Marc-Olivier Méhu
Supporto tecnico e logistico : Manuel Goepfert
Aiuto per la traduzione : Arnaldo La Scala

Contatto : metmap@orbifly.com




FONTI E CREDITI :

   NOAA